Sweetwater, Nevada
Current Conditions -  °F | °C
As of 10:52 PM on Saturday 22 Nov 2014 (Local Time) from KBAN Reporting Station
Clear Clear  
Wind Chill: 29°   Ceiling: Unl
Heat Index: 29°   Visibility: NA
Dew Point: 20°   Wind: 3mph
Humidity: 69%   Direction: 310°NW
Pressure: 30.2"   Gusts: NA
Location:  38.7596°N, 119.34°W
Report Text: KBAN 230652Z AUTO 31003KT CLR M02/M07 A3020 RMK AO2 SLP218 T10171067 FZRANO $
Loading
Personal Weather Stations






























Interactive Weather Map New forecast layout! Learn more

10-Day Weather Forecast

Advertisements
Track Severe Weather on mobile